Bookmark and Share
Track history (hours):
 

Shinsei Maru

Last reported at 2014-Apr-18 14:28 UTC. Time now 2014-Apr-18 18:22 UTC.
Position N 32°39' E 132°04'.

Length 104 m.

Type: Tanker. MMSI: 431301775.

NotesDate/timePositionNaut miles runAvg speedWind from/ knotsBaromVisibWave heightAir tempDewpointWater temp
2014-Apr-18 14:28N 32°39' E 132°04'1213.6
2014-Apr-18 13:33N 32°27' E 131°59'1313.0
2014-Apr-18 12:33N 32°15' E 131°54'  
2014-Apr-15 10:32N 31°59' E 132°15'1010.5
2014-Apr-15 09:34N 32°06' E 132°24'43212.3
2014-Apr-13 22:33N 35°31' E 140°00'2 1.9
2014-Apr-13 21:33N 35°31' E 140°02'0 0.0
2014-Apr-13 20:31N 35°31' E 140°02'0 0.0
2014-Apr-13 19:31N 35°31' E 140°02'0 0.0
2014-Apr-13 18:25N 35°31' E 140°02'0 0.1
2014-Apr-13 17:31N 35°31' E 140°02'0 0.0
2014-Apr-13 16:28N 35°31' E 140°02'0 0.0
2014-Apr-13 15:32N 35°31' E 140°02'0 0.0
2014-Apr-13 14:26N 35°31' E 140°02'0 0.0
2014-Apr-13 13:32N 35°31' E 140°02'0 0.0
2014-Apr-13 12:32N 35°31' E 140°02'0 0.0
2014-Apr-13 11:32N 35°31' E 140°02'0 0.1
2014-Apr-13 10:33N 35°31' E 140°02'1 1.2
2014-Apr-13 09:18N 35°32' E 140°01'0 0.0
2014-Apr-13 08:33N 35°32' E 140°01'0 0.1
2014-Apr-13 07:33N 35°32' E 140°01'0 0.1
2014-Apr-13 06:33N 35°32' E 140°01'0 0.1
2014-Apr-13 05:33N 35°32' E 140°01'0 0.0
2014-Apr-13 04:33N 35°32' E 140°01'0 0.0
2014-Apr-13 03:31N 35°32' E 140°01'0 0.0
2014-Apr-13 02:31N 35°32' E 140°01'0 0.1
2014-Apr-13 01:28N 35°32' E 140°01'0 0.0
2014-Apr-13 00:31N 35°32' E 140°01'0 0.0
2014-Apr-12 23:25N 35°32' E 140°01'0 0.0
2014-Apr-12 22:29N 35°32' E 140°01'0 0.1
2014-Apr-12 21:29N 35°32' E 140°01'0 0.0
2014-Apr-12 20:32N 35°32' E 140°01'0 0.0
2014-Apr-12 19:32N 35°32' E 140°01'0 0.0
2014-Apr-12 18:32N 35°32' E 140°01'0 0.0
2014-Apr-12 17:33N 35°32' E 140°01'0 0.0
2014-Apr-12 16:30N 35°32' E 140°01'0 0.1
2014-Apr-12 15:33N 35°32' E 140°01'0 0.0
2014-Apr-12 14:33N 35°32' E 140°01'0 0.0
2014-Apr-12 13:30N 35°32' E 140°01'0 0.0
2014-Apr-12 12:25N 35°32' E 140°01'7 8.2
2014-Apr-12 11:33N 35°30' E 139°53'6 5.6
2014-Apr-12 10:31N 35°32' E 139°46'0 0.0
2014-Apr-12 09:31N 35°32' E 139°46'0 0.0
2014-Apr-12 08:31N 35°32' E 139°46'0 0.0
2014-Apr-12 07:31N 35°32' E 139°46'0 0.0
2014-Apr-12 06:31N 35°32' E 139°46'0 0.0
2014-Apr-12 05:32N 35°32' E 139°46'0 0.0
2014-Apr-12 04:23N 35°32' E 139°46'0 0.0
2014-Apr-12 03:29N 35°32' E 139°46'0 0.3
2014-Apr-12 02:29N 35°31' E 139°46'1 0.7
2014-Apr-12 01:18N 35°31' E 139°46'0 0.0
2014-Apr-12 00:21N 35°31' E 139°46'0 0.1
2014-Apr-11 23:27N 35°31' E 139°46'0 0.0
2014-Apr-11 22:24N 35°31' E 139°46'0 0.0
2014-Apr-11 21:31N 35°31' E 139°46'0 0.0
2014-Apr-11 20:25N 35°31' E 139°46'0 0.0
2014-Apr-11 19:22N 35°31' E 139°46'0 0.1
2014-Apr-11 18:31N 35°31' E 139°46'0 0.0
2014-Apr-11 17:22N 35°31' E 139°46'0 0.0
2014-Apr-11 16:32N 35°31' E 139°46'0 0.0
2014-Apr-11 15:29N 35°31' E 139°46'0 0.0
2014-Apr-11 14:29N 35°31' E 139°46'1 1.0
2014-Apr-11 13:32N 35°32' E 139°46'0 0.0
2014-Apr-11 12:29N 35°32' E 139°46'0 0.0
2014-Apr-11 11:29N 35°32' E 139°46'0 0.0
2014-Apr-11 10:23N 35°32' E 139°46'0 0.0
2014-Apr-11 09:33N 35°32' E 139°46'0 0.0
2014-Apr-11 08:33N 35°32' E 139°46'0 0.0
2014-Apr-11 07:33N 35°32' E 139°46'0 0.0
2014-Apr-11 06:27N 35°32' E 139°46'0 0.0
2014-Apr-11 05:33N 35°32' E 139°46'1 1.0
2014-Apr-11 04:33N 35°31' E 139°46'5 5.3
2014-Apr-11 03:33N 35°25' E 139°45'1 0.4
2014-Apr-11 01:29N 35°24' E 139°45'0 0.0
2014-Apr-11 00:20N 35°25' E 139°45'0 0.1
2014-Apr-10 23:29N 35°24' E 139°45'0 0.0
2014-Apr-10 22:11N 35°24' E 139°45'0 0.0
2014-Apr-10 21:33N 35°24' E 139°45'0 0.1
2014-Apr-10 20:33N 35°24' E 139°45'0 0.0
2014-Apr-10 19:33N 35°24' E 139°45'0 0.0
2014-Apr-10 18:33N 35°24' E 139°45'0 0.0
2014-Apr-10 17:34N 35°24' E 139°45'0 0.0
2014-Apr-10 16:09N 35°24' E 139°45'0 0.1
2014-Apr-10 15:18N 35°24' E 139°45'6 7.8
2014-Apr-10 14:33N 35°19' E 139°44'24511.1
2014-Apr-09 16:33N 34°01' E 135°02'8 0.7
2014-Apr-09 05:31N 34°08' E 135°07'0 0.0
2014-Apr-09 04:25N 34°08' E 135°07'0 0.0
2014-Apr-09 03:31N 34°08' E 135°07'0 0.0
2014-Apr-09 02:32N 34°08' E 135°07'0 0.0
2014-Apr-09 01:32N 34°08' E 135°07'1 0.5
2014-Apr-09 00:33N 34°08' E 135°07'5 4.9
2014-Apr-08 23:33N 34°13' E 135°09'0 0.0
2014-Apr-08 22:33N 34°13' E 135°09'0 0.0
2014-Apr-08 21:31N 34°13' E 135°09'0 0.0
2014-Apr-08 20:31N 34°13' E 135°09'0 0.0
2014-Apr-08 19:31N 34°13' E 135°09'0 0.0
2014-Apr-08 18:31N 34°13' E 135°09'0 0.0
2014-Apr-08 17:31N 34°13' E 135°09'0 0.0
2014-Apr-08 16:32N 34°13' E 135°09'0 0.0
2014-Apr-08 15:32N 34°13' E 135°09'0 0.0
2014-Apr-08 14:32N 34°13' E 135°09'  

Dump ship's entire track history

sailing weather and tide predictions

Shinsei Maru — JD2188 — position and weather